createdAt,value
2023-03-01T00:01:42.336Z,2.24
2023-03-01T00:04:09.571Z,2.11
2023-03-01T00:06:36.906Z,2.15
2023-03-01T00:09:05.132Z,2.16
2023-03-01T00:11:34.519Z,2.17
2023-03-01T00:14:05.778Z,2.20
2023-03-01T00:16:43.234Z,2.19
2023-03-01T00:19:22.896Z,2.12
2023-03-01T00:21:50.150Z,2.10
2023-03-01T00:24:17.816Z,2.13
2023-03-01T00:26:45.157Z,2.14
2023-03-01T00:29:12.410Z,2.13
2023-03-01T00:31:39.638Z,2.10
2023-03-01T00:34:07.282Z,2.10
2023-03-01T00:36:38.010Z,2.08
2023-03-01T00:39:14.427Z,2.06
2023-03-01T00:41:43.224Z,2.14
2023-03-01T00:44:10.784Z,2.09
2023-03-01T00:46:38.146Z,2.14
2023-03-01T00:49:05.590Z,2.12
2023-03-01T00:51:33.077Z,2.16
2023-03-01T00:54:03.340Z,2.12
2023-03-01T00:56:32.250Z,2.12
2023-03-01T00:58:59.725Z,2.15
2023-03-01T01:01:31.441Z,2.20
2023-03-01T01:04:05.094Z,2.18
2023-03-01T01:06:40.640Z,2.14
2023-03-01T01:09:09.280Z,2.10
2023-03-01T01:11:39.865Z,2.12
2023-03-01T01:14:07.116Z,2.14
2023-03-01T01:16:34.510Z,2.07
2023-03-01T01:19:02.667Z,2.05
2023-03-01T01:21:30.765Z,2.05
2023-03-01T01:23:58.472Z,2.04
2023-03-01T01:26:33.714Z,2.02
2023-03-01T01:29:04.537Z,2.10
2023-03-01T01:31:33.736Z,2.06
2023-03-01T01:34:05.932Z,2.05
2023-03-01T01:36:35.152Z,2.03
2023-03-01T01:39:03.075Z,2.10
2023-03-01T01:41:31.444Z,2.19
2023-03-01T01:44:27.555Z,2.08
2023-03-01T01:47:06.993Z,2.09
2023-03-01T01:49:56.221Z,2.16
2023-03-01T01:52:35.319Z,2.01
2023-03-01T01:55:13.049Z,1.98
2023-03-01T01:57:46.994Z,2.01
2023-03-01T02:00:32.593Z,2.01
2023-03-01T02:03:19.052Z,1.88
2023-03-01T02:06:07.778Z,1.83
2023-03-01T02:08:39.393Z,1.90
2023-03-01T02:11:07.499Z,1.95
2023-03-01T02:13:35.489Z,1.87
2023-03-01T02:16:10.649Z,1.82
2023-03-01T02:18:41.268Z,1.68
2023-03-01T02:22:00.800Z,1.52
2023-03-01T02:25:24.893Z,1.59
2023-03-01T02:28:16.395Z,1.58
2023-03-01T02:31:09.011Z,1.49
2023-03-01T02:33:40.376Z,1.41
2023-03-01T02:36:24.692Z,1.32
2023-03-01T02:38:57.596Z,1.26
2023-03-01T02:41:29.630Z,1.23
2023-03-01T02:43:57.044Z,1.27
2023-03-01T02:46:27.208Z,1.12
2023-03-01T02:48:59.095Z,0.95
2023-03-01T02:52:19.516Z,0.85
2023-03-01T02:55:06.896Z,0.88
2023-03-01T02:57:40.101Z,0.81
2023-03-01T03:00:26.022Z,0.72
2023-03-01T03:02:55.117Z,0.71
2023-03-01T03:05:30.335Z,0.69
2023-03-01T03:08:02.483Z,0.63
2023-03-01T03:10:40.471Z,0.65
2023-03-01T03:13:14.761Z,0.69
2023-03-01T03:15:44.774Z,0.59
2023-03-01T03:18:17.110Z,0.52
2023-03-01T03:20:45.488Z,0.58
2023-03-01T03:23:14.152Z,0.54
2023-03-01T03:25:41.408Z,0.48
2023-03-01T03:28:12.060Z,0.48
2023-03-01T03:30:42.014Z,0.58
2023-03-01T03:33:13.655Z,0.47
2023-03-01T03:35:48.611Z,0.43
2023-03-01T03:38:20.615Z,0.41
2023-03-01T03:41:04.164Z,0.41
2023-03-01T03:43:35.128Z,0.45
2023-03-01T03:46:06.856Z,0.44
2023-03-01T03:48:41.452Z,0.38
2023-03-01T03:51:13.912Z,0.37
2023-03-01T03:53:42.011Z,0.29
2023-03-01T03:56:10.129Z,0.33
2023-03-01T03:58:37.801Z,0.42
2023-03-01T04:01:05.636Z,0.21
2023-03-01T04:03:35.954Z,0.14
2023-03-01T04:06:05.115Z,0.26
2023-03-01T04:08:32.854Z,0.29
2023-03-01T04:11:22.645Z,0.28
2023-03-01T04:13:50.239Z,0.27
2023-03-01T04:16:18.624Z,0.22
2023-03-01T04:18:46.289Z,0.11
2023-03-01T04:21:13.749Z,0.06
2023-03-01T04:23:42.007Z,0.01
2023-03-01T04:26:09.691Z,-0.06
2023-03-01T04:28:46.330Z,0.01
2023-03-01T04:31:22.328Z,0.03
2023-03-01T04:33:56.629Z,0.08
2023-03-01T04:36:29.371Z,-0.01
2023-03-01T04:38:58.075Z,-0.07
2023-03-01T04:41:26.985Z,-0.14
2023-03-01T04:43:54.423Z,-0.16
2023-03-01T04:46:23.055Z,-0.07
2023-03-01T04:48:50.377Z,-0.11
2023-03-01T04:51:17.751Z,-0.19
2023-03-01T04:53:45.474Z,-0.30
2023-03-01T04:56:18.729Z,-0.28
2023-03-01T04:58:47.148Z,-0.12
2023-03-01T05:01:19.742Z,-0.16
2023-03-01T05:03:51.927Z,-0.22
2023-03-01T05:06:21.447Z,-0.35
2023-03-01T05:08:48.748Z,-0.21
2023-03-01T05:11:16.056Z,-0.28
2023-03-01T05:13:43.408Z,-0.32
2023-03-01T05:16:17.521Z,-0.21
2023-03-01T05:18:44.802Z,-0.26
2023-03-01T05:21:16.930Z,-0.26
2023-03-01T05:23:45.202Z,-0.36
2023-03-01T05:26:27.416Z,-0.42
2023-03-01T05:28:59.841Z,-0.47
2023-03-01T05:31:27.934Z,-0.40
2023-03-01T05:33:55.306Z,-0.42
2023-03-01T05:36:22.576Z,-0.36
2023-03-01T05:38:49.816Z,-0.39
2023-03-01T05:41:17.921Z,-0.36
2023-03-01T05:43:46.035Z,-0.32
2023-03-01T05:46:14.358Z,-0.43
2023-03-01T05:48:42.053Z,-0.55
2023-03-01T05:51:09.335Z,-0.54
2023-03-01T05:53:36.534Z,-0.61
2023-03-01T05:56:07.128Z,-0.56
2023-03-01T05:58:34.360Z,-0.65
2023-03-01T06:01:01.575Z,-0.46
2023-03-01T06:03:28.722Z,-0.39
2023-03-01T06:05:59.280Z,-0.40
2023-03-01T06:08:28.114Z,-0.34
2023-03-01T06:10:55.650Z,-0.41
2023-03-01T06:13:24.498Z,-0.31
2023-03-01T06:15:53.049Z,-0.37
2023-03-01T06:18:20.429Z,-0.44
2023-03-01T06:20:55.156Z,-0.27
2023-03-01T06:23:23.994Z,-0.14
2023-03-01T06:25:51.456Z,-0.11
2023-03-01T06:28:18.777Z,-0.05
2023-03-01T06:30:46.102Z,0.00
2023-03-01T06:33:13.322Z,0.05
2023-03-01T06:35:40.601Z,0.12
2023-03-01T06:38:07.769Z,0.21
2023-03-01T06:40:36.225Z,0.32
2023-03-01T06:43:03.675Z,0.31
2023-03-01T06:45:35.010Z,0.36
2023-03-01T06:48:05.662Z,0.36
2023-03-01T06:50:36.592Z,0.33
2023-03-01T06:53:04.269Z,0.31
2023-03-01T06:55:32.544Z,0.40
2023-03-01T06:58:03.661Z,0.48
2023-03-01T07:00:31.621Z,0.47
2023-03-01T07:03:03.486Z,0.45
2023-03-01T07:05:31.774Z,0.53
2023-03-01T07:07:58.969Z,0.66
2023-03-01T07:10:26.222Z,0.79
2023-03-01T07:12:57.810Z,0.93
2023-03-01T07:15:27.626Z,1.01
2023-03-01T07:17:55.171Z,0.99
2023-03-01T07:20:26.441Z,1.05
2023-03-01T07:22:56.247Z,1.09
2023-03-01T07:25:23.576Z,1.07
2023-03-01T07:27:55.362Z,1.08
2023-03-01T07:30:23.631Z,1.01
2023-03-01T07:32:51.082Z,1.15
2023-03-01T07:35:18.596Z,1.26
2023-03-01T07:37:45.786Z,1.27
2023-03-01T07:40:14.055Z,1.29
2023-03-01T07:42:41.355Z,1.28
2023-03-01T07:45:09.356Z,1.27
2023-03-01T07:47:36.954Z,1.37
2023-03-01T07:50:05.515Z,1.39
2023-03-01T07:52:32.992Z,1.43
2023-03-01T07:55:00.182Z,1.60
2023-03-01T07:57:28.290Z,1.80
2023-03-01T07:59:55.441Z,1.88
2023-03-01T08:02:22.608Z,1.86
2023-03-01T08:04:49.884Z,1.74
2023-03-01T08:07:17.178Z,1.83
2023-03-01T08:09:44.416Z,1.83
2023-03-01T08:12:11.603Z,1.81
2023-03-01T08:14:38.850Z,1.82
2023-03-01T08:17:06.095Z,1.89
2023-03-01T08:19:34.133Z,2.01
2023-03-01T08:22:03.505Z,2.05
2023-03-01T08:24:30.967Z,2.14
2023-03-01T08:26:58.257Z,2.41
2023-03-01T08:29:25.730Z,2.68
2023-03-01T08:31:53.138Z,2.90
2023-03-01T08:34:20.434Z,3.12
2023-03-01T08:36:48.342Z,3.19
2023-03-01T08:39:20.105Z,3.12
2023-03-01T08:41:48.389Z,3.32
2023-03-01T08:44:20.516Z,3.42
2023-03-01T08:46:51.533Z,3.61
2023-03-01T08:49:21.082Z,3.62
2023-03-01T08:51:49.150Z,3.64
2023-03-01T08:54:22.143Z,3.80
2023-03-01T08:56:49.971Z,3.91
2023-03-01T08:59:19.015Z,4.01
2023-03-01T09:01:46.396Z,4.17
2023-03-01T09:04:15.874Z,4.58
2023-03-01T09:06:44.588Z,4.70
2023-03-01T09:09:17.911Z,4.93
2023-03-01T09:11:47.410Z,5.10
2023-03-01T09:14:15.651Z,5.27
2023-03-01T09:16:43.508Z,5.11
2023-03-01T09:19:10.859Z,5.05
2023-03-01T09:21:40.972Z,5.20
2023-03-01T09:24:15.497Z,5.20
2023-03-01T09:26:43.860Z,5.47
2023-03-01T09:29:11.386Z,5.57
2023-03-01T09:31:39.114Z,5.19
2023-03-01T09:34:07.266Z,5.26
2023-03-01T09:36:34.965Z,5.35
2023-03-01T09:39:05.915Z,5.41
2023-03-01T09:42:05.338Z,5.45
2023-03-01T09:44:58.557Z,5.72
2023-03-01T09:47:37.090Z,5.68
2023-03-01T09:50:22.350Z,5.82
2023-03-01T09:53:07.708Z,6.26
2023-03-01T09:56:04.299Z,6.28
2023-03-01T09:59:14.532Z,6.40
2023-03-01T10:02:29.122Z,6.67
2023-03-01T10:05:30.475Z,6.39
2023-03-01T10:08:30.395Z,6.26
2023-03-01T10:10:59.377Z,6.27
2023-03-01T10:13:46.480Z,6.46
2023-03-01T10:16:22.495Z,6.71
2023-03-01T10:19:00.708Z,6.91
2023-03-01T10:21:32.465Z,7.46
2023-03-01T10:24:20.902Z,7.72
2023-03-01T10:27:09.406Z,7.56
2023-03-01T10:29:55.029Z,7.42
2023-03-01T10:32:25.067Z,7.77
2023-03-01T10:34:52.642Z,7.89
2023-03-01T10:37:22.872Z,7.86
2023-03-01T10:40:11.402Z,7.32
2023-03-01T10:42:50.532Z,7.21
2023-03-01T10:45:40.577Z,7.22
2023-03-01T10:48:24.500Z,7.16
2023-03-01T10:51:07.969Z,7.04
2023-03-01T10:53:53.348Z,7.17
2023-03-01T10:56:20.855Z,7.07
2023-03-01T10:59:04.099Z,7.32
2023-03-01T11:01:36.194Z,7.28
2023-03-01T11:04:06.565Z,7.28
2023-03-01T11:06:44.826Z,7.35
2023-03-01T11:09:24.629Z,7.41
2023-03-01T11:11:58.610Z,7.51
2023-03-01T11:14:41.754Z,7.30
2023-03-01T11:17:44.568Z,7.49
2023-03-01T11:20:29.097Z,7.39
2023-03-01T11:23:03.638Z,7.39
2023-03-01T11:25:39.121Z,7.53
2023-03-01T11:28:16.049Z,7.85
2023-03-01T11:31:15.021Z,8.09
2023-03-01T11:34:10.271Z,8.12
2023-03-01T11:36:56.023Z,7.94
2023-03-01T11:39:33.388Z,8.03
2023-03-01T11:42:29.473Z,7.91
2023-03-01T11:45:04.211Z,7.91
2023-03-01T11:48:23.196Z,8.02
2023-03-01T11:50:50.913Z,8.02
2023-03-01T11:54:00.756Z,7.79
2023-03-01T11:56:40.400Z,8.22
2023-03-01T11:59:52.057Z,8.22
2023-03-01T12:02:54.918Z,8.17
2023-03-01T12:05:43.899Z,8.72
2023-03-01T12:08:32.294Z,8.73
2023-03-01T12:11:45.146Z,8.62
2023-03-01T12:14:37.289Z,8.79
2023-03-01T12:17:48.122Z,8.64
2023-03-01T12:21:00.769Z,8.76
2023-03-01T12:23:50.126Z,8.59
2023-03-01T12:26:39.757Z,8.55
2023-03-01T12:29:43.545Z,8.94
2023-03-01T12:32:30.984Z,8.99
2023-03-01T12:35:59.123Z,8.53
2023-03-01T12:38:57.240Z,8.49
2023-03-01T12:42:03.056Z,8.22
2023-03-01T12:44:51.161Z,8.28
2023-03-01T12:47:43.991Z,8.20
2023-03-01T12:50:25.605Z,8.07
2023-03-01T12:52:58.717Z,7.61
2023-03-01T12:55:39.108Z,7.72
2023-03-01T12:58:47.356Z,7.67
2023-03-01T13:01:49.351Z,7.88
2023-03-01T13:05:10.013Z,7.71
2023-03-01T13:07:44.451Z,8.44
2023-03-01T13:10:44.797Z,8.29
2023-03-01T13:13:26.458Z,8.12
2023-03-01T13:15:55.238Z,7.90
2023-03-01T13:18:26.279Z,7.88
2023-03-01T13:21:01.029Z,7.97
2023-03-01T13:23:32.973Z,7.45
2023-03-01T13:25:59.953Z,7.60
2023-03-01T13:28:43.519Z,7.72
2023-03-01T13:31:16.629Z,7.97
2023-03-01T13:34:09.120Z,8.07
2023-03-01T13:36:37.070Z,7.67
2023-03-01T13:39:39.807Z,7.68
2023-03-01T13:42:42.519Z,7.57
2023-03-01T13:45:42.401Z,7.70
2023-03-01T13:48:23.861Z,7.53
2023-03-01T13:51:01.471Z,7.43
2023-03-01T13:53:36.103Z,7.48
2023-03-01T13:56:20.579Z,7.31
2023-03-01T13:59:17.458Z,7.81
2023-03-01T14:01:45.103Z,7.83
2023-03-01T14:04:36.822Z,7.69
2023-03-01T14:07:30.457Z,7.32
2023-03-01T14:10:05.413Z,7.50
2023-03-01T14:12:53.843Z,7.61
2023-03-01T14:15:31.347Z,7.48
2023-03-01T14:18:30.025Z,7.45
2023-03-01T14:20:57.227Z,7.35
2023-03-01T14:23:25.222Z,7.36
2023-03-01T14:25:58.910Z,7.42
2023-03-01T14:28:38.400Z,7.20
2023-03-01T14:31:53.703Z,7.32
2023-03-01T14:34:25.054Z,7.39
2023-03-01T14:36:52.559Z,7.38
2023-03-01T14:39:30.076Z,7.33
2023-03-01T14:42:00.551Z,7.29
2023-03-01T14:44:30.836Z,7.31
2023-03-01T14:46:58.714Z,7.25
2023-03-01T14:49:31.865Z,7.15
2023-03-01T14:52:06.341Z,7.16
2023-03-01T14:54:45.474Z,7.22
2023-03-01T14:57:25.141Z,7.09
2023-03-01T15:00:01.407Z,7.16
2023-03-01T15:02:31.593Z,7.15
2023-03-01T15:05:08.158Z,7.41
2023-03-01T15:07:43.062Z,7.19
2023-03-01T15:10:26.138Z,7.28
2023-03-01T15:12:54.173Z,7.14
2023-03-01T15:15:36.089Z,7.20
2023-03-01T15:18:20.164Z,7.29
2023-03-01T15:20:51.110Z,7.13
2023-03-01T15:23:27.859Z,7.06
2023-03-01T15:26:01.396Z,7.03
2023-03-01T15:28:34.771Z,7.05
2023-03-01T15:31:32.702Z,7.04
2023-03-01T15:34:35.449Z,7.03
2023-03-01T15:37:09.593Z,6.98
2023-03-01T15:39:44.153Z,6.96
2023-03-01T15:42:38.819Z,6.90
2023-03-01T15:45:26.598Z,6.86
2023-03-01T15:48:18.937Z,6.85
2023-03-01T15:50:59.092Z,6.87
2023-03-01T15:53:28.948Z,6.88
2023-03-01T15:55:56.105Z,6.87
2023-03-01T15:58:26.680Z,6.94
2023-03-01T16:01:01.088Z,6.84
2023-03-01T16:03:30.365Z,6.83
2023-03-01T16:05:57.883Z,6.84
2023-03-01T16:08:25.796Z,6.92
2023-03-01T16:10:55.276Z,6.86
2023-03-01T16:13:22.637Z,6.90
2023-03-01T16:15:50.017Z,6.80
2023-03-01T16:18:17.343Z,6.87
2023-03-01T16:20:44.510Z,6.88
2023-03-01T16:23:12.739Z,6.76
2023-03-01T16:25:40.193Z,6.66
2023-03-01T16:28:11.160Z,6.66
2023-03-01T16:30:40.567Z,6.69
2023-03-01T16:33:24.236Z,6.64
2023-03-01T16:35:56.501Z,6.62
2023-03-01T16:38:23.808Z,6.61
2023-03-01T16:40:52.809Z,6.57
2023-03-01T16:43:20.246Z,6.59
2023-03-01T16:45:47.792Z,6.60
2023-03-01T16:48:15.266Z,6.57
2023-03-01T16:50:42.540Z,6.47
2023-03-01T16:53:10.175Z,6.41
2023-03-01T16:55:38.783Z,6.31
2023-03-01T16:58:06.653Z,6.26
2023-03-01T17:00:34.147Z,6.26
2023-03-01T17:03:01.460Z,6.15
2023-03-01T17:05:28.827Z,6.02
2023-03-01T17:07:58.009Z,5.73
2023-03-01T17:10:25.207Z,5.42
2023-03-01T17:12:52.451Z,5.24
2023-03-01T17:15:19.848Z,5.14
2023-03-01T17:17:51.584Z,5.19
2023-03-01T17:20:19.514Z,4.99
2023-03-01T17:22:47.768Z,4.86
2023-03-01T17:25:15.591Z,4.89
2023-03-01T17:27:42.829Z,4.69
2023-03-01T17:30:14.152Z,4.72
2023-03-01T17:32:42.377Z,4.66
2023-03-01T17:35:12.096Z,4.46
2023-03-01T17:37:40.476Z,4.47
2023-03-01T17:40:09.032Z,4.43
2023-03-01T17:42:36.103Z,4.37
2023-03-01T17:45:03.772Z,4.18
2023-03-01T17:47:30.967Z,4.03
2023-03-01T17:49:58.160Z,3.98
2023-03-01T17:52:25.406Z,4.08
2023-03-01T17:54:52.504Z,4.06
2023-03-01T17:57:19.845Z,3.95
2023-03-01T17:59:47.035Z,3.92
2023-03-01T18:02:14.428Z,3.95
2023-03-01T18:04:41.655Z,3.88
2023-03-01T18:07:08.779Z,4.10
2023-03-01T18:09:35.994Z,3.91
2023-03-01T18:12:03.221Z,3.88
2023-03-01T18:14:33.825Z,3.90
2023-03-01T18:17:11.613Z,3.90
2023-03-01T18:19:41.268Z,3.97
2023-03-01T18:22:09.259Z,3.94
2023-03-01T18:24:38.091Z,3.89
2023-03-01T18:27:05.685Z,3.72
2023-03-01T18:29:33.071Z,3.71
2023-03-01T18:32:00.445Z,3.73
2023-03-01T18:34:28.727Z,3.67
2023-03-01T18:37:08.712Z,3.49
2023-03-01T18:39:37.270Z,3.54
2023-03-01T18:42:04.617Z,3.69
2023-03-01T18:44:31.819Z,3.73
2023-03-01T18:46:59.085Z,3.73
2023-03-01T18:49:26.860Z,3.77
2023-03-01T18:51:54.495Z,3.79
2023-03-01T18:54:21.816Z,3.78
2023-03-01T18:56:48.989Z,3.73
2023-03-01T18:59:16.405Z,3.56
2023-03-01T19:01:43.869Z,3.45
2023-03-01T19:04:12.130Z,3.44
2023-03-01T19:06:39.455Z,3.47
2023-03-01T19:09:08.579Z,3.43
2023-03-01T19:11:35.955Z,3.55
2023-03-01T19:14:04.806Z,3.52
2023-03-01T19:16:34.284Z,3.51
2023-03-01T19:19:05.114Z,3.53
2023-03-01T19:21:33.621Z,3.48
2023-03-01T19:24:02.565Z,3.53
2023-03-01T19:26:31.693Z,3.59
2023-03-01T19:28:59.882Z,3.61
2023-03-01T19:31:31.145Z,3.62
2023-03-01T19:34:11.414Z,3.54
2023-03-01T19:36:42.839Z,3.64
2023-03-01T19:39:13.529Z,3.61
2023-03-01T19:41:42.704Z,3.58
2023-03-01T19:44:11.161Z,3.45
2023-03-01T19:46:38.662Z,3.36
2023-03-01T19:49:06.546Z,3.42
2023-03-01T19:51:36.392Z,3.35
2023-03-01T19:54:06.130Z,3.40
2023-03-01T19:56:34.701Z,3.23
2023-03-01T19:59:04.241Z,3.23
2023-03-01T20:01:34.327Z,3.24
2023-03-01T20:04:04.220Z,3.26
2023-03-01T20:06:32.276Z,3.32
2023-03-01T20:09:04.212Z,3.31
2023-03-01T20:11:36.507Z,3.26
2023-03-01T20:14:06.625Z,3.28
2023-03-01T20:16:34.383Z,3.33
2023-03-01T20:19:02.185Z,3.35
2023-03-01T20:21:29.378Z,3.30
2023-03-01T20:23:56.730Z,3.28
2023-03-01T20:26:25.433Z,3.29
2023-03-01T20:28:56.870Z,3.26
2023-03-01T20:31:29.277Z,3.10
2023-03-01T20:33:59.667Z,3.10
2023-03-01T20:36:28.215Z,3.01
2023-03-01T20:38:55.722Z,2.99
2023-03-01T20:41:26.689Z,3.02
2023-03-01T20:43:56.355Z,3.01
2023-03-01T20:46:26.678Z,2.94
2023-03-01T20:48:54.582Z,2.90
2023-03-01T20:51:22.115Z,2.93
2023-03-01T20:53:49.716Z,2.87
2023-03-01T20:56:19.621Z,2.84
2023-03-01T20:59:08.118Z,2.84
2023-03-01T21:01:36.768Z,2.87
2023-03-01T21:04:06.035Z,2.93
2023-03-01T21:06:33.539Z,2.98
2023-03-01T21:09:00.988Z,3.00
2023-03-01T21:11:28.234Z,2.97
2023-03-01T21:13:56.771Z,2.94
2023-03-01T21:16:25.242Z,2.98
2023-03-01T21:18:53.469Z,3.02
2023-03-01T21:21:23.988Z,3.06
2023-03-01T21:23:51.193Z,3.07
2023-03-01T21:26:24.134Z,3.01
2023-03-01T21:29:01.260Z,2.96
2023-03-01T21:31:33.948Z,2.96
2023-03-01T21:34:06.161Z,2.93
2023-03-01T21:36:35.743Z,2.94
2023-03-01T21:39:05.437Z,2.96
2023-03-01T21:41:37.962Z,2.93
2023-03-01T21:44:07.267Z,2.95
2023-03-01T21:46:39.343Z,2.94
2023-03-01T21:49:08.727Z,3.01
2023-03-01T21:51:36.741Z,2.91
2023-03-01T21:54:05.607Z,2.89
2023-03-01T21:56:38.553Z,2.91
2023-03-01T21:59:14.292Z,2.98
2023-03-01T22:01:41.978Z,2.96
2023-03-01T22:04:10.002Z,3.01
2023-03-01T22:06:42.408Z,2.95
2023-03-01T22:09:23.121Z,3.00
2023-03-01T22:11:54.507Z,2.93
2023-03-01T22:14:22.201Z,3.01
2023-03-01T22:16:51.573Z,3.12
2023-03-01T22:19:19.892Z,3.09
2023-03-01T22:21:52.132Z,3.10
2023-03-01T22:24:24.522Z,3.07
2023-03-01T22:26:54.296Z,2.92
2023-03-01T22:29:29.432Z,2.93
2023-03-01T22:31:58.705Z,3.02
2023-03-01T22:34:26.995Z,2.98
2023-03-01T22:36:54.411Z,3.03
2023-03-01T22:39:22.104Z,3.03
2023-03-01T22:41:49.902Z,2.96
2023-03-01T22:44:22.760Z,2.96
2023-03-01T22:46:50.696Z,2.95
2023-03-01T22:49:19.294Z,2.92
2023-03-01T22:51:47.554Z,2.91
2023-03-01T22:54:16.554Z,2.89
2023-03-01T22:56:44.275Z,2.99
2023-03-01T22:59:16.625Z,3.02
2023-03-01T23:01:47.643Z,2.95
2023-03-01T23:04:16.998Z,2.90
2023-03-01T23:06:50.642Z,2.87
2023-03-01T23:09:26.916Z,2.93
2023-03-01T23:11:55.520Z,2.99
2023-03-01T23:14:23.945Z,2.88
2023-03-01T23:16:52.077Z,2.91
2023-03-01T23:19:19.359Z,2.93
2023-03-01T23:21:49.933Z,3.03
2023-03-01T23:24:22.336Z,2.98
2023-03-01T23:26:56.072Z,2.93
2023-03-01T23:29:23.457Z,3.01
2023-03-01T23:31:50.701Z,3.17
2023-03-01T23:34:19.174Z,3.04
2023-03-01T23:36:46.876Z,2.91
2023-03-01T23:39:14.760Z,2.91
2023-03-01T23:41:42.278Z,2.98
2023-03-01T23:44:20.928Z,2.99
2023-03-01T23:46:50.793Z,2.97
2023-03-01T23:49:23.059Z,2.92
2023-03-01T23:51:50.970Z,2.97
2023-03-01T23:54:22.806Z,2.89
2023-03-01T23:56:50.305Z,2.87
2023-03-01T23:59:23.581Z,2.97
